Time;durP1;ratioP1;P1;durP2;ratioP2;P2;SDS_P1;SDS_P2;PMS_P1;PMS_P2;Temp;Humidity;BMP_temperature;BMP_pressure;BME280_temperature;BME280_humidity;BME280_pressure;Samples;Min_cycle;Max_cycle;Signal;HPM_P1;HPM_P2
2022/11/29 00:00:46;;;;;;;109.20;19.17;;;8.20;99.90;;;;;;4931404;29;20414;-76
2022/11/29 00:03:13;;;;;;;249.55;29.77;;;8.20;99.90;;;;;;4947629;29;20437;-77
2022/11/29 00:05:38;;;;;;;100.53;18.13;;;8.20;99.90;;;;;;4947301;29;20426;-76
2022/11/29 00:08:04;;;;;;;142.15;21.45;;;8.00;99.90;;;;;;4948030;29;20425;-76
2022/11/29 00:10:30;;;;;;;116.50;19.73;;;8.10;99.90;;;;;;4947770;29;20922;-78
2022/11/29 00:12:55;;;;;;;203.32;25.30;;;8.00;99.90;;;;;;4948068;29;20509;-77
2022/11/29 00:15:21;;;;;;;172.52;22.08;;;8.10;99.90;;;;;;4947519;29;20492;-76
2022/11/29 00:17:47;;;;;;;296.38;30.60;;;8.10;99.90;;;;;;4948142;29;20514;-76
2022/11/29 00:20:12;;;;;;;241.35;25.80;;;7.80;99.90;;;;;;4946761;29;20501;-76
2022/11/29 00:22:38;;;;;;;180.70;21.17;;;7.80;99.90;;;;;;4947666;29;20418;-76
2022/11/29 00:25:04;;;;;;;241.23;27.30;;;8.00;99.90;;;;;;4947409;29;20418;-77
2022/11/29 00:27:30;;;;;;;120.65;19.60;;;7.90;99.90;;;;;;4946552;28;20430;-77
2022/11/29 00:29:56;;;;;;;214.85;26.38;;;8.00;99.90;;;;;;4947185;29;20430;-76
2022/11/29 00:32:22;;;;;;;180.73;24.07;;;7.70;99.90;;;;;;4947369;29;20876;-76
2022/11/29 00:34:47;;;;;;;107.07;19.05;;;7.90;99.90;;;;;;4946392;29;20929;-79
2022/11/29 00:37:13;;;;;;;104.00;17.20;;;8.10;99.90;;;;;;4948003;29;20413;-78
2022/11/29 00:39:40;;;;;;;124.27;18.67;;;8.00;99.90;;;;;;4946957;29;20824;-76
2022/11/29 00:42:06;;;;;;;152.55;19.63;;;7.80;99.90;;;;;;4930464;29;20417;-76
2022/11/29 00:44:31;;;;;;;159.27;21.97;;;7.80;99.90;;;;;;4947691;29;20417;-77
2022/11/29 00:46:57;;;;;;;211.27;26.37;;;8.00;99.90;;;;;;4947614;29;20424;-78
2022/11/29 00:49:23;;;;;;;138.83;20.87;;;7.80;99.90;;;;;;4946366;29;20743;-76
2022/11/29 00:51:48;;;;;;;253.00;29.10;;;8.10;99.90;;;;;;4947483;29;20418;-77
2022/11/29 00:54:14;;;;;;;204.40;28.87;;;7.90;99.90;;;;;;4948089;29;20761;-76
2022/11/29 00:56:40;;;;;;;139.83;20.87;;;7.90;99.90;;;;;;4946814;29;20414;-76
2022/11/29 00:59:05;;;;;;;133.17;19.60;;;8.00;99.90;;;;;;4947150;29;20453;-76
2022/11/29 01:01:31;;;;;;;132.07;19.87;;;7.90;99.90;;;;;;4947252;29;20412;-76
2022/11/29 01:03:58;;;;;;;107.90;18.53;;;7.70;99.90;;;;;;4939034;28;20805;-77
2022/11/29 01:06:24;;;;;;;94.68;19.58;;;7.70;99.90;;;;;;4946982;28;20418;-77
2022/11/29 01:08:50;;;;;;;115.03;20.70;;;7.70;99.90;;;;;;4945871;29;20420;-75
2022/11/29 01:11:24;;;;;;;141.57;22.45;;;7.70;99.90;;;;;;4946602;29;20522;-78
2022/11/29 01:13:53;;;;;;;161.40;23.15;;;7.70;99.90;;;;;;4946921;28;20414;-76
2022/11/29 01:16:19;;;;;;;79.22;17.85;;;7.80;99.90;;;;;;4946643;28;20468;-76
2022/11/29 01:18:45;;;;;;;105.40;18.63;;;7.90;99.90;;;;;;4929140;29;20455;-77
2022/11/29 01:21:19;;;;;;;106.40;19.60;;;7.80;99.90;;;;;;4946358;29;20425;-77
2022/11/29 01:23:46;;;;;;;106.57;19.73;;;7.70;99.90;;;;;;4947696;28;20469;-77
2022/11/29 01:26:14;;;;;;;232.02;30.00;;;7.80;99.90;;;;;;4947458;28;20428;-77
2022/11/29 01:28:41;;;;;;;182.25;26.60;;;7.80;99.90;;;;;;4946197;28;20970;-75
2022/11/29 01:31:11;;;;;;;157.70;24.83;;;7.70;99.90;;;;;;4927263;29;20522;-76
2022/11/29 01:33:37;;;;;;;104.07;20.23;;;7.50;99.90;;;;;;4926461;29;20416;-77
2022/11/29 01:36:04;;;;;;;89.80;19.30;;;7.70;99.90;;;;;;4926474;29;20415;-76
2022/11/29 01:38:30;;;;;;;96.90;20.88;;;7.70;99.90;;;;;;4933768;29;20967;-76
2022/11/29 01:40:57;;;;;;;73.10;16.88;;;7.50;99.90;;;;;;4950523;29;20425;-75
2022/11/29 01:43:23;;;;;;;48.33;15.48;;;7.70;99.90;;;;;;4948969;29;20413;-76
2022/11/29 01:45:49;;;;;;;134.57;22.50;;;7.50;99.90;;;;;;4949373;29;20418;-77
2022/11/29 01:48:16;;;;;;;71.47;16.50;;;7.70;99.90;;;;;;4949601;29;20516;-77
2022/11/29 01:50:42;;;;;;;102.50;18.88;;;7.40;99.90;;;;;;4948034;29;20441;-76
2022/11/29 01:53:11;;;;;;;82.85;15.82;;;7.40;99.90;;;;;;4916816;29;20429;-76
2022/11/29 01:55:40;;;;;;;132.50;20.25;;;7.60;99.90;;;;;;4948645;28;21130;-77
2022/11/29 01:58:08;;;;;;;98.07;17.83;;;7.50;99.90;;;;;;4950016;29;20425;-76
2022/11/29 02:00:34;;;;;;;109.43;18.52;;;7.50;99.90;;;;;;4949309;28;20445;-77
2022/11/29 02:03:09;;;;;;;86.88;16.92;;;7.50;99.90;;;;;;4948486;29;20429;-76
2022/11/29 02:05:38;;;;;;;62.92;15.45;;;7.50;99.90;;;;;;4947883;29;20422;-75
2022/11/29 02:08:05;;;;;;;78.20;15.63;;;7.40;99.90;;;;;;5024662;23;20452;-77
2022/11/29 02:10:48;;;;;;;107.45;18.77;;;7.50;99.90;;;;;;4988435;28;20430;-78
2022/11/29 02:13:38;;;;;;;143.30;20.77;;;7.50;99.90;;;;;;4988842;28;20422;-76
2022/11/29 02:16:15;;;;;;;117.20;18.80;;;7.50;99.90;;;;;;4988563;28;20422;-76
2022/11/29 02:18:56;;;;;;;134.10;17.90;;;7.40;99.90;;;;;;4987035;28;20768;-76
2022/11/29 02:21:48;;;;;;;102.82;16.73;;;7.20;99.90;;;;;;4970768;28;20422;-76
2022/11/29 02:24:29;;;;;;;113.85;16.95;;;7.50;99.90;;;;;;4971443;28;20427;-77
2022/11/29 02:27:28;;;;;;;132.17;17.73;;;7.40;99.90;;;;;;4970597;28;20441;-77
2022/11/29 02:30:09;;;;;;;122.82;16.85;;;7.20;99.90;;;;;;4981970;28;20877;-76
2022/11/29 02:33:07;;;;;;;194.55;22.92;;;7.20;99.90;;;;;;4987764;28;20422;-77
2022/11/29 02:35:45;;;;;;;154.45;17.92;;;7.10;99.90;;;;;;4969300;28;20419;-77
2022/11/29 02:38:43;;;;;;;202.25;24.38;;;7.10;99.90;;;;;;4987763;28;21058;-77
2022/11/29 02:41:59;;;;;;;194.85;22.10;;;7.10;99.90;;;;;;4987419;28;20924;-77
2022/11/29 02:44:43;;;;;;;102.45;15.75;;;7.10;99.90;;;;;;4960466;28;20437;-77
2022/11/29 02:47:25;;;;;;;132.55;16.60;;;7.20;99.90;;;;;;4987630;28;20422;-77
2022/11/29 02:50:02;;;;;;;124.60;16.75;;;7.20;99.90;;;;;;4969934;28;21108;-77
2022/11/29 02:52:58;;;;;;;98.40;14.90;;;7.20;99.90;;;;;;4987687;28;20461;-76
2022/11/29 02:55:31;;;;;;;88.10;13.23;;;7.20;99.90;;;;;;4954282;28;20494;-76
2022/11/29 02:58:18;;;;;;;120.78;16.80;;;7.00;99.90;;;;;;4987611;28;20487;-76
2022/11/29 03:01:04;;;;;;;99.70;15.13;;;7.00;99.90;;;;;;4987926;28;20422;-76
2022/11/29 03:03:39;;;;;;;78.47;15.20;;;6.90;99.90;;;;;;4952628;28;20417;-78
2022/11/29 03:06:21;;;;;;;103.78;16.60;;;7.20;99.90;;;;;;4970095;28;20418;-76
2022/11/29 03:09:10;;;;;;;57.38;11.93;;;7.20;99.90;;;;;;4987907;28;20498;-76
2022/11/29 03:12:06;;;;;;;108.43;15.95;;;7.20;99.90;;;;;;4986684;28;20469;-76
2022/11/29 03:15:04;;;;;;;87.78;15.23;;;7.00;99.90;;;;;;4970076;28;20454;-76
2022/11/29 03:18:07;;;;;;;69.23;13.77;;;7.20;99.90;;;;;;5001551;28;20452;-76
2022/11/29 03:21:11;;;;;;;100.97;15.50;;;7.10;99.90;;;;;;4988078;28;20495;-76
2022/11/29 03:23:44;;;;;;;128.38;17.83;;;6.80;99.90;;;;;;4988667;28;20435;-77
2022/11/29 03:26:15;;;;;;;61.15;12.35;;;6.70;99.90;;;;;;5006911;28;20500;-77
2022/11/29 03:28:49;;;;;;;97.03;14.63;;;7.00;99.90;;;;;;4988431;28;20464;-77
2022/11/29 03:31:26;;;;;;;149.63;18.92;;;6.80;99.90;;;;;;4988984;28;20471;-76
2022/11/29 03:34:03;;;;;;;143.82;18.50;;;6.80;99.90;;;;;;5005477;28;20448;-75
2022/11/29 03:36:55;;;;;;;79.15;13.27;;;6.70;99.90;;;;;;4988995;28;20501;-76
2022/11/29 03:39:32;;;;;;;124.70;17.73;;;6.80;99.90;;;;;;4972479;28;20451;-76
2022/11/29 03:42:09;;;;;;;72.47;13.23;;;6.90;99.90;;;;;;4988475;28;20408;-77
2022/11/29 03:44:41;;;;;;;89.72;14.95;;;6.70;99.90;;;;;;5006149;28;20748;-76
2022/11/29 03:47:12;;;;;;;66.57;13.77;;;6.80;99.90;;;;;;4987991;28;20451;-76
2022/11/29 03:49:56;;;;;;;88.63;15.23;;;6.90;99.90;;;;;;5004835;28;20462;-75
2022/11/29 03:52:41;;;;;;;103.97;15.27;;;6.80;99.90;;;;;;5005985;28;20409;-77
2022/11/29 03:55:30;;;;;;;73.25;14.07;;;6.70;99.90;;;;;;4988417;28;20412;-75
2022/11/29 03:58:08;;;;;;;133.98;18.45;;;6.80;99.90;;;;;;5005925;28;20408;-76
2022/11/29 04:00:46;;;;;;;181.40;21.73;;;6.60;99.90;;;;;;4988124;28;20496;-76
2022/11/29 04:03:45;;;;;;;110.00;14.13;;;6.60;99.90;;;;;;4987094;28;20479;-76
2022/11/29 04:06:46;;;;;;;128.80;15.88;;;6.70;99.90;;;;;;4972535;28;20471;-76
2022/11/29 04:09:18;;;;;;;128.80;15.10;;;6.50;99.90;;;;;;5001207;28;20464;-77
2022/11/29 04:12:02;;;;;;;141.27;17.08;;;6.50;99.90;;;;;;5006280;28;20429;-78
2022/11/29 04:15:02;;;;;;;135.20;16.42;;;6.70;99.90;;;;;;4971511;28;20415;-76
2022/11/29 04:17:52;;;;;;;102.10;13.52;;;6.70;99.90;;;;;;4970991;28;20441;-77
2022/11/29 04:20:47;;;;;;;94.05;12.35;;;6.80;99.90;;;;;;4985041;28;20406;-78
2022/11/29 04:23:28;;;;;;;157.90;17.30;;;6.60;99.90;;;;;;4969189;28;20426;-76
2022/11/29 04:26:11;;;;;;;138.77;16.52;;;6.30;99.90;;;;;;4985868;28;20920;-76
2022/11/29 04:29:09;;;;;;;105.20;14.33;;;6.40;99.90;;;;;;4985757;28;20425;-76
2022/11/29 04:31:54;;;;;;;97.53;13.80;;;6.50;99.90;;;;;;4985763;28;20430;-76
2022/11/29 04:34:46;;;;;;;78.35;12.88;;;6.70;99.90;;;;;;4966979;28;20509;-75
2022/11/29 04:37:57;;;;;;;123.93;16.48;;;6.60;99.90;;;;;;4985799;28;20415;-76
2022/11/29 04:40:29;;;;;;;109.45;14.07;;;6.40;99.90;;;;;;4948324;28;20414;-76
2022/11/29 04:43:03;;;;;;;102.32;14.52;;;6.40;99.90;;;;;;4986195;28;20494;-77
2022/11/29 04:45:53;;;;;;;159.10;18.00;;;6.30;99.90;;;;;;4988875;28;20423;-77
2022/11/29 04:48:48;;;;;;;137.43;17.30;;;6.40;99.90;;;;;;4986325;28;20443;-77
2022/11/29 04:51:27;;;;;;;144.50;17.67;;;6.60;99.90;;;;;;4992033;28;20777;-74
2022/11/29 04:54:01;;;;;;;87.75;13.60;;;6.30;99.90;;;;;;5005187;28;20409;-76
2022/11/29 04:56:45;;;;;;;122.63;17.20;;;6.50;99.90;;;;;;4971292;28;20693;-76
2022/11/29 04:59:53;;;;;;;92.75;15.02;;;6.40;99.90;;;;;;4988073;28;20412;-77
2022/11/29 05:02:37;;;;;;;111.88;16.98;;;6.40;99.90;;;;;;4991385;28;20993;-76
2022/11/29 05:05:12;;;;;;;119.38;17.13;;;6.50;99.90;;;;;;4987097;28;21014;-77
2022/11/29 05:08:15;;;;;;;58.10;12.32;;;6.60;99.90;;;;;;5004707;28;20436;-77
2022/11/29 05:11:23;;;;;;;76.85;14.95;;;6.30;99.90;;;;;;4987750;28;20440;-77
2022/11/29 05:14:07;;;;;;;48.40;11.65;;;6.30;99.90;;;;;;4999416;28;20930;-77
2022/11/29 05:16:59;;;;;;;77.28;14.25;;;6.70;99.90;;;;;;5008275;28;20571;-77
2022/11/29 05:19:39;;;;;;;61.95;12.02;;;6.70;99.90;;;;;;4990297;28;20448;-77
2022/11/29 05:22:32;;;;;;;66.03;12.70;;;6.40;99.90;;;;;;5009180;28;20412;-76
2022/11/29 05:25:36;;;;;;;102.05;16.73;;;6.60;99.90;;;;;;4991518;28;21036;-76
2022/11/29 05:28:36;;;;;;;81.10;13.35;;;6.30;99.90;;;;;;4985801;28;20419;-77
2022/11/29 05:31:40;;;;;;;124.40;16.17;;;6.50;99.90;;;;;;4999815;28;20441;-76
2022/11/29 05:34:15;;;;;;;114.32;16.13;;;6.40;99.90;;;;;;5008314;28;20404;-77
2022/11/29 05:37:21;;;;;;;132.27;18.70;;;6.40;99.90;;;;;;5008747;28;20463;-76
2022/11/29 05:40:22;;;;;;;149.77;18.17;;;6.30;99.90;;;;;;4991898;28;20471;-77
2022/11/29 05:43:16;;;;;;;114.85;16.65;;;6.30;99.90;;;;;;4976416;28;21037;-81
2022/11/29 05:45:51;;;;;;;139.47;17.47;;;6.10;99.90;;;;;;4984399;28;20920;-76
2022/11/29 05:48:49;;;;;;;140.48;16.45;;;6.30;99.90;;;;;;4971022;28;20407;-77
2022/11/29 05:51:22;;;;;;;169.57;20.63;;;6.30;99.90;;;;;;4955164;28;20525;-78
2022/11/29 05:54:13;;;;;;;123.25;15.57;;;6.30;99.90;;;;;;4971797;28;20415;-77
2022/11/29 05:57:06;;;;;;;136.02;16.08;;;6.50;99.90;;;;;;4988895;28;20418;-76
2022/11/29 05:59:35;;;;;;;179.68;18.50;;;6.10;99.90;;;;;;4988194;28;20493;-76
2022/11/29 06:02:26;;;;;;;209.10;20.30;;;6.20;99.90;;;;;;4971293;28;20553;-76
2022/11/29 06:05:13;;;;;;;193.98;18.92;;;6.30;99.90;;;;;;4987666;28;20488;-76
2022/11/29 06:08:07;;;;;;;104.80;13.55;;;6.10;99.90;;;;;;4988011;28;21027;-76
2022/11/29 06:10:40;;;;;;;136.60;17.33;;;6.10;99.90;;;;;;4988685;28;20835;-76
2022/11/29 06:13:12;;;;;;;148.50;17.52;;;6.40;99.90;;;;;;4988570;28;20406;-76
2022/11/29 06:16:07;;;;;;;205.02;22.45;;;6.40;99.90;;;;;;4994510;28;20926;-76
2022/11/29 06:18:36;;;;;;;125.45;16.17;;;6.30;99.90;;;;;;4983660;28;20926;-79
2022/11/29 06:21:49;;;;;;;138.65;17.42;;;6.30;99.90;;;;;;5008233;28;20559;-76
2022/11/29 06:24:36;;;;;;;81.53;14.07;;;6.20;99.90;;;;;;4993199;28;20500;-76
2022/11/29 06:27:16;;;;;;;113.15;17.05;;;6.30;99.90;;;;;;4990277;28;20473;-78
2022/11/29 06:30:11;;;;;;;104.90;15.55;;;6.40;99.90;;;;;;5007586;28;20415;-78
2022/11/29 06:33:00;;;;;;;93.18;14.88;;;6.30;99.90;;;;;;5007590;28;20923;-77
2022/11/29 06:35:44;;;;;;;157.50;17.38;;;6.10;99.90;;;;;;5007779;28;20412;-77
2022/11/29 06:38:29;;;;;;;182.55;20.55;;;6.10;99.90;;;;;;5007474;28;20400;-76
2022/11/29 06:40:56;;;;;;;90.82;14.20;;;6.30;99.90;;;;;;4974043;28;20427;-77
2022/11/29 06:43:24;;;;;;;170.13;17.77;;;6.10;99.90;;;;;;5007449;28;20409;-76
2022/11/29 06:46:09;;;;;;;130.35;19.55;;;6.20;99.90;;;;;;4997487;28;20411;-77
2022/11/29 06:48:52;;;;;;;159.65;17.38;;;6.00;99.90;;;;;;4969242;28;20415;-76
2022/11/29 06:51:46;;;;;;;229.43;21.55;;;6.00;99.90;;;;;;4987680;28;21007;-77
2022/11/29 06:54:49;;;;;;;218.75;21.70;;;6.20;99.90;;;;;;4988344;28;20403;-77
2022/11/29 06:57:35;;;;;;;167.45;17.55;;;5.90;99.90;;;;;;4988020;28;20509;-75
2022/11/29 07:00:21;;;;;;;248.40;23.42;;;6.00;99.90;;;;;;4985815;28;20411;-76
2022/11/29 07:03:06;;;;;;;260.15;23.83;;;6.00;99.90;;;;;;4986867;28;20407;-76
2022/11/29 07:05:35;;;;;;;309.52;33.35;;;6.10;99.90;;;;;;4969904;28;20422;-76
2022/11/29 07:08:09;;;;;;;229.10;25.10;;;5.90;99.90;;;;;;4986771;28;20450;-76
2022/11/29 07:10:37;;;;;;;212.30;23.30;;;6.00;99.90;;;;;;4986287;28;20828;-77
2022/11/29 07:13:03;;;;;;;156.63;18.27;;;6.10;99.90;;;;;;4987909;28;20419;-77
2022/11/29 07:15:29;;;;;;;154.88;19.77;;;5.90;99.90;;;;;;4969730;28;20406;-76
2022/11/29 07:18:19;;;;;;;144.15;19.42;;;6.00;99.90;;;;;;4986705;28;20477;-77
2022/11/29 07:20:53;;;;;;;96.43;17.47;;;6.00;99.90;;;;;;4987747;28;20512;-76
2022/11/29 07:23:57;;;;;;;103.05;15.50;;;6.20;99.90;;;;;;4969550;28;20932;-76
2022/11/29 07:26:34;;;;;;;119.05;18.45;;;6.00;99.90;;;;;;4945743;29;20436;-76
2022/11/29 07:29:25;;;;;;;86.65;16.48;;;6.20;99.90;;;;;;4929753;29;20418;-77
2022/11/29 07:32:11;;;;;;;86.28;17.63;;;6.30;99.90;;;;;;4976115;28;20434;-76
2022/11/29 07:35:13;;;;;;;68.75;17.15;;;6.00;99.90;;;;;;4968987;28;21031;-76
2022/11/29 07:38:12;;;;;;;92.30;19.77;;;6.30;99.90;;;;;;4986361;28;20453;-77
2022/11/29 07:40:41;;;;;;;54.58;17.27;;;6.20;99.90;;;;;;4969787;28;20826;-75
2022/11/29 07:43:25;;;;;;;75.20;20.05;;;6.30;99.90;;;;;;4954326;28;20410;-77
2022/11/29 07:45:51;;;;;;;38.85;15.38;;;6.30;99.90;;;;;;4999507;28;20605;-76
2022/11/29 07:48:17;;;;;;;41.70;15.93;;;6.40;99.90;;;;;;5004877;28;20413;-76
2022/11/29 07:50:43;;;;;;;27.52;13.52;;;6.30;99.90;;;;;;5006985;28;20431;-76
2022/11/29 07:53:16;;;;;;;24.55;13.73;;;6.40;99.90;;;;;;5006882;28;20459;-77
2022/11/29 07:55:42;;;;;;;25.50;12.48;;;6.20;99.90;;;;;;5006530;28;20416;-77
2022/11/29 07:58:12;;;;;;;26.30;13.70;;;6.50;99.90;;;;;;5006492;28;20405;-76
2022/11/29 08:00:39;;;;;;;28.15;14.55;;;6.30;99.90;;;;;;5006085;28;20400;-77
2022/11/29 08:03:05;;;;;;;22.95;12.35;;;6.30;99.90;;;;;;5005767;28;20492;-78
2022/11/29 08:05:30;;;;;;;26.75;13.40;;;6.60;99.90;;;;;;5006191;28;20808;-76
2022/11/29 08:07:56;;;;;;;24.42;14.30;;;6.60;99.90;;;;;;4972726;28;20432;-76
2022/11/29 08:10:22;;;;;;;23.67;13.30;;;6.50;99.90;;;;;;5006200;28;20436;-77
2022/11/29 08:12:49;;;;;;;25.20;13.38;;;6.40;99.90;;;;;;5006777;28;20413;-77
2022/11/29 08:15:16;;;;;;;27.50;13.90;;;6.40;99.90;;;;;;5005955;28;20919;-77
2022/11/29 08:17:42;;;;;;;22.33;12.27;;;6.50;99.90;;;;;;5005044;28;20895;-76
2022/11/29 08:20:09;;;;;;;24.92;12.50;;;6.40;99.90;;;;;;5006162;28;20451;-77
2022/11/29 08:22:35;;;;;;;26.05;10.88;;;6.60;99.90;;;;;;5005802;28;20512;-76
2022/11/29 08:25:01;;;;;;;27.05;11.48;;;6.70;99.90;;;;;;5005908;28;20741;-77
2022/11/29 08:27:27;;;;;;;25.90;10.60;;;6.70;99.90;;;;;;5005079;28;20475;-75
2022/11/29 08:29:53;;;;;;;18.30;10.23;;;6.90;99.90;;;;;;5005710;28;20772;-77
2022/11/29 08:32:19;;;;;;;28.02;12.13;;;6.70;99.90;;;;;;5005247;28;20776;-79
2022/11/29 08:34:44;;;;;;;24.88;11.68;;;6.90;99.90;;;;;;4988397;28;20506;-77
2022/11/29 08:37:10;;;;;;;24.02;11.18;;;6.80;99.90;;;;;;5005691;28;20413;-77
2022/11/29 08:39:36;;;;;;;26.57;11.60;;;6.90;99.90;;;;;;5005450;28;20400;-76
2022/11/29 08:42:01;;;;;;;27.23;10.80;;;7.20;99.90;;;;;;5005397;28;20846;-76
2022/11/29 08:44:27;;;;;;;24.77;10.50;;;7.30;99.90;;;;;;4986603;28;20418;-76
2022/11/29 08:49:59;;;;;;;26.60;11.40;;;7.30;99.90;;;;;;5004436;28;20954;-77
2022/11/29 08:55:07;;;;;;;26.88;9.98;;;7.30;99.90;;;;;;5004581;28;20445;-76
2022/11/29 08:57:32;;;;;;;23.93;8.97;;;7.50;99.90;;;;;;5004901;28;20506;-76
2022/11/29 08:59:58;;;;;;;24.23;9.73;;;7.30;99.90;;;;;;4969560;28;20507;-77
2022/11/29 09:02:24;;;;;;;22.13;9.43;;;7.50;99.90;;;;;;5003617;28;20787;-76
2022/11/29 09:04:49;;;;;;;24.60;9.47;;;7.60;99.90;;;;;;4988155;28;20409;-77
2022/11/29 09:07:15;;;;;;;24.53;9.40;;;7.40;99.90;;;;;;5005830;28;20420;-76
2022/11/29 09:09:41;;;;;;;22.43;9.23;;;7.40;99.90;;;;;;4987485;28;20567;-75
2022/11/29 09:12:07;;;;;;;25.23;8.57;;;7.40;99.90;;;;;;4988132;28;20475;-75
2022/11/29 09:14:33;;;;;;;20.08;8.70;;;7.70;99.90;;;;;;5004757;28;20512;-75
2022/11/29 09:17:00;;;;;;;20.70;8.20;;;7.80;99.90;;;;;;5005122;28;20483;-78
2022/11/29 09:19:26;;;;;;;25.05;8.13;;;7.80;99.90;;;;;;5003778;28;20759;-75
2022/11/29 09:21:52;;;;;;;24.33;6.90;;;7.80;99.90;;;;;;5005144;28;20417;-77
2022/11/29 09:24:19;;;;;;;25.42;8.57;;;7.90;99.90;;;;;;5005718;28;20411;-77
2022/11/29 09:26:47;;;;;;;18.02;6.75;;;7.80;99.90;;;;;;4987562;28;20421;-76
2022/11/29 09:29:14;;;;;;;26.02;7.70;;;7.90;99.90;;;;;;5005101;28;20420;-76
2022/11/29 09:31:41;;;;;;;18.95;6.60;;;7.90;99.90;;;;;;5004359;28;20424;-77
2022/11/29 09:34:07;;;;;;;22.27;7.43;;;7.90;99.90;;;;;;5004007;28;20813;-77
2022/11/29 09:36:32;;;;;;;24.65;6.68;;;8.10;99.90;;;;;;5004546;28;20422;-75
2022/11/29 09:39:03;;;;;;;19.88;7.47;;;8.10;99.90;;;;;;5004947;28;20401;-76
2022/11/29 09:41:56;;;;;;;24.02;7.30;;;8.10;99.90;;;;;;4987002;28;20420;-76
2022/11/29 09:44:37;;;;;;;23.67;9.53;;;8.20;99.90;;;;;;5000034;28;20429;-75
2022/11/29 09:47:23;;;;;;;24.50;7.97;;;8.40;99.90;;;;;;4985570;28;21016;-75
2022/11/29 09:50:22;;;;;;;21.23;7.57;;;8.30;99.90;;;;;;4967945;28;21006;-76
2022/11/29 09:52:55;;;;;;;23.40;8.20;;;8.40;99.90;;;;;;4938767;28;20410;-78
2022/11/29 09:55:57;;;;;;;28.50;8.27;;;8.30;99.90;;;;;;4995387;28;20421;-76
2022/11/29 09:58:32;;;;;;;23.80;7.87;;;8.50;99.90;;;;;;4987249;28;20500;-76
2022/11/29 10:01:04;;;;;;;23.75;8.05;;;8.50;99.90;;;;;;5007994;28;20419;-76
2022/11/29 10:03:55;;;;;;;24.00;7.25;;;8.60;99.90;;;;;;5007077;28;20408;-78
2022/11/29 10:06:25;;;;;;;21.77;7.03;;;8.70;99.90;;;;;;4990395;28;20478;-78
2022/11/29 10:09:27;;;;;;;24.40;9.25;;;8.60;99.90;;;;;;4990771;28;20409;-76
2022/11/29 10:11:59;;;;;;;22.92;7.43;;;8.50;99.90;;;;;;4973884;28;20899;-77
2022/11/29 10:14:40;;;;;;;19.65;7.38;;;8.70;99.90;;;;;;5003803;28;20422;-77
2022/11/29 10:17:16;;;;;;;19.75;8.43;;;8.50;99.90;;;;;;4954385;28;20442;-77
2022/11/29 10:19:53;;;;;;;18.92;7.57;;;8.50;99.90;;;;;;4970654;28;20418;-77
2022/11/29 10:22:43;;;;;;;18.60;7.20;;;8.40;99.90;;;;;;4988455;28;20399;-78
2022/11/29 10:25:18;;;;;;;22.38;8.48;;;8.40;99.90;;;;;;4988693;28;20465;-76
2022/11/29 10:27:43;;;;;;;21.77;8.57;;;8.50;99.90;;;;;;4988629;28;20429;-76
2022/11/29 10:30:14;;;;;;;24.77;9.47;;;8.60;99.90;;;;;;4988400;28;20470;-78
2022/11/29 10:32:41;;;;;;;21.30;7.68;;;8.30;99.90;;;;;;4969534;28;20670;-79
2022/11/29 10:35:15;;;;;;;25.03;10.07;;;8.60;99.90;;;;;;4988160;28;20512;-76
2022/11/29 10:37:42;;;;;;;19.23;8.00;;;8.70;99.90;;;;;;4970122;28;20464;-76
2022/11/29 10:40:32;;;;;;;23.20;8.70;;;8.50;99.90;;;;;;4970790;28;20929;-76
2022/11/29 10:42:58;;;;;;;18.23;7.38;;;8.70;99.90;;;;;;4987972;28;20414;-77
2022/11/29 10:45:32;;;;;;;18.85;7.47;;;8.50;99.90;;;;;;4988575;28;20426;-76
2022/11/29 10:48:11;;;;;;;23.67;8.38;;;8.70;99.90;;;;;;4987589;28;20465;-76
2022/11/29 10:50:40;;;;;;;21.88;7.97;;;8.60;99.90;;;;;;4970212;28;20481;-76
2022/11/29 10:53:10;;;;;;;22.95;7.72;;;8.90;99.90;;;;;;4988069;28;20414;-75
2022/11/29 10:55:42;;;;;;;17.75;7.43;;;8.80;99.90;;;;;;4987404;28;20421;-76
2022/11/29 10:58:07;;;;;;;23.52;8.43;;;8.80;99.90;;;;;;4988398;28;20453;-76
2022/11/29 11:00:59;;;;;;;22.88;8.73;;;8.80;99.90;;;;;;4970385;28;20844;-77
2022/11/29 11:03:38;;;;;;;23.83;7.55;;;8.90;99.90;;;;;;4986483;28;20432;-79
2022/11/29 11:06:25;;;;;;;22.23;7.63;;;9.10;99.90;;;;;;4988134;28;20403;-76
2022/11/29 11:09:10;;;;;;;23.05;7.15;;;9.20;99.90;;;;;;4987967;28;20457;-78
2022/11/29 11:11:37;;;;;;;26.02;8.93;;;9.30;99.90;;;;;;4987094;28;20952;-76
2022/11/29 11:14:16;;;;;;;23.30;8.27;;;9.30;99.90;;;;;;4987985;28;20474;-76
2022/11/29 11:16:42;;;;;;;24.93;8.43;;;9.30;99.90;;;;;;4970328;28;20438;-76
2022/11/29 11:19:29;;;;;;;25.70;8.00;;;9.30;99.90;;;;;;4987162;28;20426;-77
2022/11/29 11:21:57;;;;;;;30.85;9.35;;;9.40;99.90;;;;;;4987551;28;20395;-78
2022/11/29 11:24:26;;;;;;;24.85;9.40;;;9.40;99.90;;;;;;4987732;28;20414;-78
2022/11/29 11:26:53;;;;;;;28.45;10.88;;;9.40;99.90;;;;;;4987701;28;20796;-77
2022/11/29 11:29:23;;;;;;;33.83;12.23;;;9.50;99.90;;;;;;4987722;28;20521;-78
2022/11/29 11:31:55;;;;;;;36.28;15.23;;;9.60;99.90;;;;;;4987090;28;20438;-76
2022/11/29 11:34:24;;;;;;;42.30;17.70;;;9.60;99.90;;;;;;4987830;28;20630;-76
2022/11/29 11:36:49;;;;;;;37.35;16.50;;;9.80;99.90;;;;;;4987468;28;20477;-76
2022/11/29 11:39:20;;;;;;;37.35;15.75;;;9.70;99.90;;;;;;4987413;28;20789;-79
2022/11/29 11:44:38;;;;;;;28.65;12.40;;;9.80;99.90;;;;;;4981231;28;20449;-78
2022/11/29 11:47:18;;;;;;;29.90;11.23;;;9.90;99.90;;;;;;5005527;28;20912;-75
2022/11/29 11:49:58;;;;;;;28.02;10.25;;;10.20;99.90;;;;;;4972935;28;20416;-77
2022/11/29 11:52:47;;;;;;;26.45;9.10;;;10.20;99.90;;;;;;5006740;28;20419;-77
2022/11/29 11:55:34;;;;;;;24.17;8.93;;;9.90;99.90;;;;;;5007069;28;20615;-76
2022/11/29 11:58:11;;;;;;;21.98;8.27;;;10.00;99.90;;;;;;5006582;28;20408;-76
2022/11/29 12:00:39;;;;;;;19.35;7.97;;;10.30;99.90;;;;;;4988395;28;20417;-77
2022/11/29 12:03:18;;;;;;;18.27;7.72;;;10.10;99.90;;;;;;5005828;28;20460;-76
2022/11/29 12:05:47;;;;;;;16.83;7.82;;;10.30;99.90;;;;;;4989513;28;20416;-74
2022/11/29 12:08:13;;;;;;;15.07;7.93;;;10.40;99.90;;;;;;5006944;28;20413;-75
2022/11/29 12:10:40;;;;;;;19.30;8.77;;;10.40;99.90;;;;;;5005575;28;20420;-77
2022/11/29 12:13:17;;;;;;;21.05;9.27;;;10.30;99.90;;;;;;4989100;28;20772;-77
2022/11/29 12:15:46;;;;;;;18.48;8.75;;;10.40;99.90;;;;;;4989159;28;20412;-76
2022/11/29 12:18:26;;;;;;;15.40;9.15;;;10.30;99.90;;;;;;5006124;28;20428;-76
2022/11/29 12:21:04;;;;;;;13.95;8.75;;;10.50;99.90;;;;;;5006689;28;20401;-77
2022/11/29 12:23:29;;;;;;;18.10;9.15;;;10.50;99.90;;;;;;5005355;28;20579;-77
2022/11/29 12:25:57;;;;;;;14.75;9.00;;;10.50;99.90;;;;;;4988511;28;20532;-77
2022/11/29 12:28:33;;;;;;;13.63;8.37;;;10.50;99.90;;;;;;4988146;28;20946;-77
2022/11/29 12:31:29;;;;;;;25.95;9.57;;;10.30;99.90;;;;;;5006196;28;20512;-77
2022/11/29 12:34:07;;;;;;;13.05;9.13;;;10.50;99.90;;;;;;5005110;28;20480;-77
2022/11/29 12:36:35;;;;;;;16.35;9.00;;;10.50;99.90;;;;;;5005707;28;20492;-78
2022/11/29 12:39:15;;;;;;;12.40;8.23;;;10.40;99.90;;;;;;5005812;28;20441;-76
2022/11/29 12:42:12;;;;;;;12.27;7.72;;;10.20;99.90;;;;;;5005648;28;20409;-76
2022/11/29 12:44:50;;;;;;;7.85;6.82;;;10.40;99.90;;;;;;4975398;28;20429;-76
2022/11/29 12:47:36;;;;;;;9.13;6.88;;;10.30;99.90;;;;;;4968987;28;20413;-77
2022/11/29 12:50:20;;;;;;;10.60;7.25;;;10.30;99.90;;;;;;4986053;28;20595;-75
2022/11/29 12:53:01;;;;;;;9.45;7.53;;;10.20;99.90;;;;;;4986516;28;20984;-77
2022/11/29 12:56:02;;;;;;;12.40;7.82;;;10.30;99.90;;;;;;4986272;28;20410;-77
2022/11/29 12:58:42;;;;;;;10.10;7.30;;;10.40;99.90;;;;;;4947654;28;20414;-77
2022/11/29 13:01:20;;;;;;;10.80;7.60;;;10.30;99.90;;;;;;4986560;28;20410;-76
2022/11/29 13:04:01;;;;;;;13.95;7.43;;;10.20;99.90;;;;;;4985608;28;20409;-76
2022/11/29 13:06:39;;;;;;;9.77;6.15;;;10.30;99.90;;;;;;4968462;28;20430;-77
2022/11/29 13:09:32;;;;;;;7.65;6.45;;;10.30;99.90;;;;;;4968367;28;20433;-79
2022/11/29 13:12:15;;;;;;;8.60;6.10;;;10.30;99.90;;;;;;4985881;28;20438;-77
2022/11/29 13:14:41;;;;;;;8.10;6.35;;;10.30;99.90;;;;;;4997568;28;20412;-76
2022/11/29 13:17:21;;;;;;;9.20;6.65;;;10.40;99.90;;;;;;4970933;28;20421;-77
2022/11/29 13:19:54;;;;;;;9.65;7.40;;;10.30;99.90;;;;;;4988238;28;20405;-77
2022/11/29 13:22:40;;;;;;;11.70;7.35;;;10.20;99.90;;;;;;5005125;28;20416;-77
2022/11/29 13:25:28;;;;;;;9.73;6.90;;;10.20;99.90;;;;;;4988306;28;20420;-77
2022/11/29 13:27:59;;;;;;;10.57;7.55;;;10.30;99.90;;;;;;4987628;28;20475;-77
2022/11/29 13:30:25;;;;;;;9.27;6.65;;;10.30;99.90;;;;;;5004923;28;20435;-76
2022/11/29 13:32:53;;;;;;;8.40;6.45;;;10.30;99.90;;;;;;4986803;28;20409;-76
2022/11/29 13:35:32;;;;;;;9.27;6.78;;;10.20;99.90;;;;;;5007991;28;20411;-76